Time,TemperatureF,DewpointF,PressureIn,WindDirection,WindDirectionDegrees,WindSpeedMPH,WindSpeedGustMPH,Humidity,HourlyPrecipIn,Conditions,Clouds,dailyrainin,SoftwareType,DateUTC
2013-03-22 00:00:00,27.0,11.7,28.91,North,0,1.1,0.0,52,0.00,,SKC,0.00,WeatherDisplay:10.37,2013-03-22 04:00:00,
2013-03-22 00:01:00,27.0,11.7,28.91,North,0,1.1,0.0,52,0.00,,SKC,0.00,WeatherDisplay:10.37,2013-03-22 04:01:00,
2013-03-22 00:06:00,27.0,11.7,28.91,North,0,1.1,0.0,52,0.00,,SKC,0.00,WeatherDisplay:10.37,2013-03-22 04:06:00,
2013-03-22 00:11:00,26.6,11.7,28.91,NW,315,1.1,0.0,53,0.00,,SKC,0.00,WeatherDisplay:10.37,2013-03-22 04:11:00,
2013-03-22 00:16:00,26.2,11.8,28.91,NW,315,1.1,0.0,54,0.00,,SKC,0.00,WeatherDisplay:10.37,2013-03-22 04:16:00,
2013-03-22 00:22:00,26.2,11.8,28.92,North,0,1.1,0.0,54,0.00,,SKC,0.00,WeatherDisplay:10.37,2013-03-22 04:22:00,
2013-03-22 00:27:00,26.1,12.1,28.91,South,180,1.1,0.0,55,0.00,,SKC,0.00,WeatherDisplay:10.37,2013-03-22 04:27:00,
2013-03-22 00:32:00,25.9,13.1,28.91,SE,135,1.1,0.0,58,0.00,,SKC,0.00,WeatherDisplay:10.37,2013-03-22 04:32:00,
2013-03-22 00:36:00,66.6,62.9,30.17,North,0,0.0,0.7,88,0.00,,,0.00,Cumulus v1.9.3,2013-03-22 04:36:00,
2013-03-22 00:37:00,25.5,12.8,28.91,South,180,1.1,0.0,58,0.00,,SKC,0.00,WeatherDisplay:10.37,2013-03-22 04:37:00,
2013-03-22 00:42:00,25.3,12.6,28.91,South,180,2.3,2.3,58,0.00,,SKC,0.00,WeatherDisplay:10.37,2013-03-22 04:42:00,
2013-03-22 00:47:00,25.2,12.4,28.91,NW,315,1.1,0.0,58,0.00,,SKC,0.00,WeatherDisplay:10.37,2013-03-22 04:47:00,
2013-03-22 00:52:00,25.5,12.8,28.92,North,0,1.1,0.0,58,0.00,,SKC,0.00,WeatherDisplay:10.37,2013-03-22 04:52:00,
2013-03-22 00:57:00,25.9,13.1,28.92,NE,45,1.1,0.0,58,0.00,,SKC,0.00,WeatherDisplay:10.37,2013-03-22 04:57:00,
2013-03-22 01:02:00,26.1,12.5,28.92,NE,45,0.0,0.0,56,0.00,,SKC,0.00,WeatherDisplay:10.37,2013-03-22 05:02:00,
2013-03-22 01:06:00,66.9,63.6,30.17,North,0,0.0,0.0,89,0.00,,,0.00,Cumulus v1.9.3,2013-03-22 05:06:00,
2013-03-22 01:07:00,25.9,13.1,28.92,North,0,1.1,0.0,58,0.00,,SKC,0.00,WeatherDisplay:10.37,2013-03-22 05:07:00,
2013-03-22 01:12:00,25.5,12.8,28.92,North,0,3.5,0.0,58,0.00,,SKC,0.00,WeatherDisplay:10.37,2013-03-22 05:12:00,
2013-03-22 01:17:00,25.2,12.4,28.92,SE,135,2.3,0.0,58,0.00,,SKC,0.00,WeatherDisplay:10.37,2013-03-22 05:17:00,
2013-03-22 01:22:00,25.0,12.7,28.92,West,270,1.1,0.0,59,0.00,,SKC,0.00,WeatherDisplay:10.37,2013-03-22 05:22:00,
2013-03-22 01:27:00,24.8,12.5,28.91,SE,135,1.1,0.0,59,0.00,,SKC,0.00,WeatherDisplay:10.37,2013-03-22 05:27:00,
2013-03-22 01:32:00,24.8,13.2,28.91,South,180,1.1,0.0,61,0.00,,SKC,0.00,WeatherDisplay:10.37,2013-03-22 05:32:00,
2013-03-22 01:36:00,68.0,63.3,30.18,North,0,0.0,0.0,85,0.00,,,0.00,Cumulus v1.9.3,2013-03-22 05:36:00,
2013-03-22 01:37:00,24.6,13.4,28.92,North,0,1.1,0.0,62,0.00,,SKC,0.00,WeatherDisplay:10.37,2013-03-22 05:37:00,
2013-03-22 01:42:00,24.4,12.9,28.92,North,0,1.1,0.0,61,0.00,,SKC,0.00,WeatherDisplay:10.37,2013-03-22 05:42:00,
2013-03-22 01:47:00,24.3,12.4,28.91,NW,315,0.0,0.0,60,0.00,,SKC,0.00,WeatherDisplay:10.37,2013-03-22 05:47:00,
2013-03-22 01:52:00,24.3,12.4,28.92,North,0,1.1,0.0,60,0.00,,SKC,0.00,WeatherDisplay:10.37,2013-03-22 05:52:00,
2013-03-22 01:57:00,24.4,13.3,28.92,North,0,3.5,3.5,62,0.00,,SKC,0.00,WeatherDisplay:10.37,2013-03-22 05:57:00,
2013-03-22 02:02:00,24.8,13.6,28.92,NE,45,1.1,0.0,62,0.00,,SKC,0.00,WeatherDisplay:10.37,2013-03-22 06:02:00,
2013-03-22 02:06:00,68.0,63.7,30.18,North,0,0.0,0.7,86,0.00,,,0.00,Cumulus v1.9.3,2013-03-22 06:06:00,
2013-03-22 02:07:00,24.8,13.6,28.92,NE,45,1.1,0.0,62,0.00,,SKC,0.00,WeatherDisplay:10.37,2013-03-22 06:07:00,
2013-03-22 02:12:00,24.8,13.6,28.92,NE,45,1.1,0.0,62,0.00,,SKC,0.00,WeatherDisplay:10.37,2013-03-22 06:12:00,
2013-03-22 02:17:00,24.4,13.3,28.92,NE,45,0.0,0.0,62,0.00,,SKC,0.00,WeatherDisplay:10.37,2013-03-22 06:17:00,
2013-03-22 02:23:00,24.4,13.3,28.92,NE,45,1.1,0.0,62,0.00,,SKC,0.00,WeatherDisplay:10.37,2013-03-22 06:23:00,
2013-03-22 02:28:00,24.4,12.9,28.92,North,0,1.1,0.0,61,0.00,,SKC,0.00,WeatherDisplay:10.37,2013-03-22 06:28:00,
2013-03-22 02:33:00,24.6,12.7,28.92,NW,315,1.1,0.0,60,0.00,,SKC,0.00,WeatherDisplay:10.37,2013-03-22 06:33:00,
2013-03-22 02:36:00,69.6,64.6,30.17,North,0,0.0,0.7,84,0.00,,,0.00,Cumulus v1.9.3,2013-03-22 06:36:00,
2013-03-22 02:38:00,24.6,12.7,28.92,NW,315,1.1,0.0,60,0.00,,SKC,0.00,WeatherDisplay:10.37,2013-03-22 06:38:00,
2013-03-22 02:43:00,24.4,12.5,28.92,North,0,1.1,0.0,60,0.00,,SKC,0.00,WeatherDisplay:10.37,2013-03-22 06:43:00,
2013-03-22 02:48:00,24.1,12.9,28.92,North,0,1.1,0.0,62,0.00,,SKC,0.00,WeatherDisplay:10.37,2013-03-22 06:48:00,
2013-03-22 02:53:00,24.1,13.3,28.92,South,180,1.6,1.6,63,0.00,,SKC,0.00,WeatherDisplay:10.37,2013-03-22 06:53:00,
2013-03-22 02:58:00,23.7,13.3,28.91,South,180,2.3,0.0,64,0.00,,SKC,0.00,WeatherDisplay:10.37,2013-03-22 06:58:00,
2013-03-22 03:03:00,23.4,13.0,28.92,NE,45,0.0,0.0,64,0.00,,SKC,0.00,WeatherDisplay:10.37,2013-03-22 07:03:00,
2013-03-22 03:06:00,69.3,64.6,30.17,SE,135,0.7,1.6,85,0.00,,,0.00,Cumulus v1.9.3,2013-03-22 07:06:00,
2013-03-22 03:08:00,23.0,13.0,28.91,NE,45,1.1,0.0,65,0.00,,SKC,0.00,WeatherDisplay:10.37,2013-03-22 07:08:00,
2013-03-22 03:13:00,22.8,12.8,28.91,North,0,1.1,0.0,65,0.00,,SKC,0.00,WeatherDisplay:10.37,2013-03-22 07:13:00,
2013-03-22 03:18:00,22.8,13.2,28.91,NE,45,1.1,0.0,66,0.00,,SKC,0.00,WeatherDisplay:10.37,2013-03-22 07:18:00,
2013-03-22 03:23:00,22.6,13.0,28.91,South,180,1.1,0.0,66,0.00,,SKC,0.00,WeatherDisplay:10.37,2013-03-22 07:23:00,
2013-03-22 03:28:00,22.5,13.5,28.92,NW,315,1.1,0.0,68,0.00,,SKC,0.00,WeatherDisplay:10.37,2013-03-22 07:28:00,
2013-03-22 03:33:00,22.3,13.6,28.92,North,0,1.1,0.0,69,0.00,,SKC,0.00,WeatherDisplay:10.37,2013-03-22 07:33:00,
2013-03-22 03:36:00,68.7,64.7,30.16,North,0,0.0,0.0,87,0.00,,,0.00,Cumulus v1.9.3,2013-03-22 07:36:00,
2013-03-22 03:38:00,22.3,13.3,28.91,North,0,1.1,1.1,68,0.00,,SKC,0.00,WeatherDisplay:10.37,2013-03-22 07:38:00,
2013-03-22 03:43:00,22.6,13.7,28.92,North,0,1.1,0.0,68,0.00,,SKC,0.00,WeatherDisplay:10.37,2013-03-22 07:43:00,
2013-03-22 03:48:00,22.8,13.5,28.92,North,0,1.1,0.0,67,0.00,,SKC,0.00,WeatherDisplay:10.37,2013-03-22 07:48:00,
2013-03-22 03:53:00,22.8,13.8,28.92,SW,225,1.1,0.0,68,0.00,,SKC,0.00,WeatherDisplay:10.37,2013-03-22 07:53:00,
2013-03-22 03:58:00,22.6,13.7,28.92,South,180,2.3,0.0,68,0.00,,SKC,0.00,WeatherDisplay:10.37,2013-03-22 07:58:00,
2013-03-22 04:03:00,22.5,13.5,28.92,NW,315,0.0,0.0,68,0.00,,SKC,0.00,WeatherDisplay:10.37,2013-03-22 08:03:00,
2013-03-22 04:06:00,68.9,65.2,30.17,North,0,0.0,0.7,88,0.00,,,0.00,Cumulus v1.9.3,2013-03-22 08:06:00,
2013-03-22 04:08:00,21.7,13.1,28.92,NW,315,0.0,0.0,69,0.00,,SKC,0.00,WeatherDisplay:10.37,2013-03-22 08:08:00,
2013-03-22 04:13:00,21.6,13.0,28.92,NW,315,1.1,0.0,69,0.00,,SKC,0.00,WeatherDisplay:10.37,2013-03-22 08:13:00,
2013-03-22 04:18:00,21.6,13.0,28.92,SW,225,0.0,0.0,69,0.00,,SKC,0.00,WeatherDisplay:10.37,2013-03-22 08:18:00,
2013-03-22 04:23:00,21.6,13.0,28.92,SW,225,1.1,0.0,69,0.00,,SKC,0.00,WeatherDisplay:10.37,2013-03-22 08:23:00,
2013-03-22 04:28:00,21.7,13.5,28.92,SW,225,1.1,0.0,70,0.00,,SKC,0.00,WeatherDisplay:10.37,2013-03-22 08:28:00,
2013-03-22 04:33:00,21.7,13.5,28.92,NW,315,1.1,0.0,70,0.00,,SKC,0.00,WeatherDisplay:10.37,2013-03-22 08:33:00,
2013-03-22 04:36:00,70.3,66.0,30.16,North,0,0.0,0.7,86,0.00,,,0.00,Cumulus v1.9.3,2013-03-22 08:36:00,
2013-03-22 04:38:00,21.6,13.3,28.92,NW,315,0.0,0.0,70,0.00,,SKC,0.00,WeatherDisplay:10.37,2013-03-22 08:38:00,
2013-03-22 04:43:00,21.4,12.8,28.92,NW,315,1.1,0.0,69,0.00,,SKC,0.00,WeatherDisplay:10.37,2013-03-22 08:43:00,
2013-03-22 04:48:00,21.4,13.1,28.92,NW,315,1.1,0.0,70,0.00,,SKC,0.00,WeatherDisplay:10.37,2013-03-22 08:48:00,
2013-03-22 04:53:00,21.4,13.4,28.92,NW,315,1.1,0.0,71,0.00,,SKC,0.00,WeatherDisplay:10.37,2013-03-22 08:53:00,
2013-03-22 04:58:00,21.6,13.9,28.93,West,270,0.0,0.0,72,0.00,,SKC,0.00,WeatherDisplay:10.37,2013-03-22 08:58:00,
2013-03-22 05:03:00,21.7,14.1,28.93,West,270,0.0,0.0,72,0.00,,SKC,0.00,WeatherDisplay:10.37,2013-03-22 09:03:00,
2013-03-22 05:06:00,69.8,65.8,30.16,North,0,0.0,0.7,87,0.00,,,0.00,Cumulus v1.9.3,2013-03-22 09:06:00,
2013-03-22 05:08:00,21.7,14.1,28.93,West,270,1.1,0.0,72,0.00,,SKC,0.00,WeatherDisplay:10.37,2013-03-22 09:08:00,
2013-03-22 05:13:00,21.6,13.6,28.93,NW,315,0.0,0.0,71,0.00,,SKC,0.00,WeatherDisplay:10.37,2013-03-22 09:13:00,
2013-03-22 05:18:00,21.2,12.9,28.93,NW,315,1.1,0.0,70,0.00,,SKC,0.00,WeatherDisplay:10.37,2013-03-22 09:18:00,
2013-03-22 05:23:00,21.2,12.9,28.94,NW,315,0.0,0.0,70,0.00,,SKC,0.00,WeatherDisplay:10.37,2013-03-22 09:23:00,
2013-03-22 05:28:00,21.2,12.9,28.94,NW,315,1.1,0.0,70,0.00,,SKC,0.00,WeatherDisplay:10.37,2013-03-22 09:28:00,
2013-03-22 05:33:00,21.4,13.1,28.94,NW,315,1.1,0.0,70,0.00,,SKC,0.00,WeatherDisplay:10.37,2013-03-22 09:33:00,
2013-03-22 05:36:00,69.3,67.1,30.15,SE,135,0.7,3.1,93,0.00,,,0.00,Cumulus v1.9.3,2013-03-22 09:36:00,
2013-03-22 05:38:00,21.6,13.3,28.94,NW,315,0.0,0.0,70,0.00,,SKC,0.00,WeatherDisplay:10.37,2013-03-22 09:38:00,
2013-03-22 05:43:00,21.4,13.1,28.94,NW,315,1.1,0.0,70,0.00,,SKC,0.00,WeatherDisplay:10.37,2013-03-22 09:43:00,
2013-03-22 05:48:00,21.2,12.9,28.94,North,0,1.1,0.0,70,0.00,,SKC,0.00,WeatherDisplay:10.37,2013-03-22 09:48:00,
2013-03-22 05:53:00,21.2,12.9,28.94,North,0,0.0,0.0,70,0.00,,SKC,0.00,WeatherDisplay:10.37,2013-03-22 09:53:00,
2013-03-22 05:58:00,21.0,12.8,28.94,North,0,0.0,0.0,70,0.00,,SKC,0.00,WeatherDisplay:10.37,2013-03-22 09:58:00,
2013-03-22 06:03:00,21.0,12.8,28.94,North,0,0.0,0.0,70,0.00,,SKC,0.00,WeatherDisplay:10.37,2013-03-22 10:03:00,
2013-03-22 06:06:00,69.8,66.7,30.16,North,0,0.0,1.6,90,0.00,,,0.00,Cumulus v1.9.3,2013-03-22 10:06:00,
2013-03-22 06:08:00,20.5,12.6,28.95,North,0,1.1,0.0,71,0.00,,SKC,0.00,WeatherDisplay:10.37,2013-03-22 10:08:00,
2013-03-22 06:13:00,20.5,13.5,28.95,South,180,1.1,0.0,74,0.00,,SKC,0.00,WeatherDisplay:10.37,2013-03-22 10:13:00,
2013-03-22 06:18:00,20.3,13.3,28.95,NW,315,0.0,0.0,74,0.00,,SKC,0.00,WeatherDisplay:10.37,2013-03-22 10:18:00,
2013-03-22 06:23:00,20.1,13.2,28.96,SW,225,1.1,0.0,74,0.00,,SKC,0.00,WeatherDisplay:10.37,2013-03-22 10:23:00,
2013-03-22 06:28:00,19.9,13.0,28.96,SW,225,1.1,0.0,74,0.00,,SKC,0.00,WeatherDisplay:10.37,2013-03-22 10:28:00,
2013-03-22 06:33:00,19.8,13.1,28.96,SE,135,1.1,0.0,75,0.00,,SKC,0.00,WeatherDisplay:10.37,2013-03-22 10:33:00,
2013-03-22 06:36:00,69.8,66.7,30.14,SE,135,1.6,2.2,90,0.00,,,0.00,Cumulus v1.9.3,2013-03-22 10:36:00,
2013-03-22 06:38:00,19.8,13.1,28.96,SE,135,0.0,0.0,75,0.00,,SKC,0.00,WeatherDisplay:10.37,2013-03-22 10:38:00,
2013-03-22 06:43:00,19.6,12.9,28.97,SE,135,0.0,0.0,75,0.00,,SKC,0.00,WeatherDisplay:10.37,2013-03-22 10:43:00,
2013-03-22 06:48:00,19.4,12.8,28.97,West,270,0.0,0.0,75,0.00,,SKC,0.00,WeatherDisplay:10.37,2013-03-22 10:48:00,
2013-03-22 06:53:00,19.4,12.8,28.97,West,270,0.0,0.0,75,0.00,,SKC,0.00,WeatherDisplay:10.37,2013-03-22 10:53:00,
2013-03-22 06:58:00,19.2,12.9,28.97,SE,135,1.1,0.0,76,0.00,,SKC,0.00,WeatherDisplay:10.37,2013-03-22 10:58:00,
2013-03-22 07:03:00,19.2,12.9,28.97,SE,135,0.0,0.0,76,0.00,,SKC,0.00,WeatherDisplay:10.37,2013-03-22 11:03:00,
2013-03-22 07:06:00,70.3,66.6,30.14,SE,135,1.6,2.2,88,0.00,,,0.00,Cumulus v1.9.3,2013-03-22 11:06:00,
2013-03-22 07:08:00,19.2,12.9,28.98,SE,135,1.1,0.0,76,0.00,,SKC,0.00,WeatherDisplay:10.37,2013-03-22 11:08:00,
2013-03-22 07:13:00,19.2,12.9,28.98,NE,45,0.0,0.0,76,0.00,,SKC,0.00,WeatherDisplay:10.37,2013-03-22 11:13:00,
2013-03-22 07:18:00,19.2,12.9,28.98,NE,45,0.0,0.0,76,0.00,,SKC,0.00,WeatherDisplay:10.37,2013-03-22 11:18:00,
2013-03-22 07:23:00,19.2,12.9,28.99,South,180,0.0,0.0,76,0.00,,SKC,0.00,WeatherDisplay:10.37,2013-03-22 11:23:00,
2013-03-22 07:28:00,19.2,12.9,28.98,South,180,0.0,0.0,76,0.00,,SKC,0.00,WeatherDisplay:10.37,2013-03-22 11:28:00,
2013-03-22 07:33:00,19.2,13.2,28.99,South,180,1.1,0.0,77,0.00,,SKC,0.00,WeatherDisplay:10.37,2013-03-22 11:33:00,
2013-03-22 07:36:00,71.1,66.7,30.12,North,0,0.0,0.7,86,0.00,,,0.00,Cumulus v1.9.3,2013-03-22 11:36:00,
2013-03-22 07:38:00,19.2,13.5,28.99,South,180,1.1,0.0,78,0.00,,SKC,0.00,WeatherDisplay:10.37,2013-03-22 11:38:00,
2013-03-22 07:44:00,19.4,13.7,29.00,North,0,1.1,0.0,78,0.00,,SKC,0.00,WeatherDisplay:10.37,2013-03-22 11:44:00,
2013-03-22 07:49:00,19.4,13.7,29.00,SE,135,0.0,0.0,78,0.00,,SKC,0.00,WeatherDisplay:10.37,2013-03-22 11:49:00,
2013-03-22 07:54:00,19.8,14.0,29.00,SW,225,0.0,0.0,78,0.00,,SKC,0.00,WeatherDisplay:10.37,2013-03-22 11:54:00,
2013-03-22 07:59:00,20.7,14.6,29.00,North,0,1.1,0.0,77,0.00,,SKC,0.00,WeatherDisplay:10.37,2013-03-22 11:59:00,
2013-03-22 08:04:00,21.4,15.3,29.00,North,0,1.1,0.0,77,0.00,,SKC,0.00,WeatherDisplay:10.37,2013-03-22 12:04:00,
2013-03-22 08:06:00,70.5,66.8,30.11,North,0,0.0,0.0,88,0.00,,,0.00,Cumulus v1.9.3,2013-03-22 12:06:00,
2013-03-22 08:09:00,22.6,16.2,29.00,SW,225,0.0,0.0,76,0.00,,SKC,0.00,WeatherDisplay:10.37,2013-03-22 12:09:00,
2013-03-22 08:14:00,23.4,16.6,29.00,SE,135,0.0,0.0,75,0.00,,SKC,0.00,WeatherDisplay:10.37,2013-03-22 12:14:00,
2013-03-22 08:19:00,25.2,17.7,29.00,South,180,0.0,0.0,73,0.00,,SKC,0.00,WeatherDisplay:10.37,2013-03-22 12:19:00,
2013-03-22 08:24:00,26.4,17.6,29.01,SW,225,0.0,0.0,69,0.00,,SKC,0.00,WeatherDisplay:10.37,2013-03-22 12:24:00,
2013-03-22 08:29:00,26.6,16.4,29.01,South,180,0.0,0.0,65,0.00,,SKC,0.00,WeatherDisplay:10.37,2013-03-22 12:29:00,
2013-03-22 08:34:00,26.8,15.9,29.00,SE,135,0.0,0.0,63,0.00,,SKC,0.00,WeatherDisplay:10.37,2013-03-22 12:34:00,
2013-03-22 08:36:00,72.5,67.0,30.11,North,0,0.0,0.0,83,0.00,,,0.00,Cumulus v1.9.3,2013-03-22 12:36:00,
2013-03-22 08:39:00,27.7,16.7,29.01,NE,45,1.1,0.0,63,0.00,,SKC,0.00,WeatherDisplay:10.37,2013-03-22 12:39:00,
2013-03-22 08:44:00,28.8,18.5,29.00,South,180,0.0,0.0,65,0.00,,SKC,0.00,WeatherDisplay:10.37,2013-03-22 12:44:00,
2013-03-22 08:49:00,29.5,18.4,29.00,South,180,0.0,0.0,63,0.00,,SKC,0.00,WeatherDisplay:10.37,2013-03-22 12:49:00,
2013-03-22 08:54:00,30.6,18.7,29.00,SSE,158,0.0,0.0,61,0.00,,SKC,0.00,WeatherDisplay:10.37,2013-03-22 12:54:00,
2013-03-22 08:59:00,31.3,19.0,29.00,SE,135,0.0,0.0,60,0.00,,SKC,0.00,WeatherDisplay:10.37,2013-03-22 12:59:00,
2013-03-22 09:04:00,31.8,17.5,29.00,South,180,0.0,0.0,55,0.00,,SKC,0.00,WeatherDisplay:10.37,2013-03-22 13:04:00,
2013-03-22 09:06:00,74.7,67.3,30.10,North,0,0.0,0.0,78,0.00,,,0.00,Cumulus v1.9.3,2013-03-22 13:06:00,
2013-03-22 09:09:00,33.3,18.4,29.00,NE,45,0.0,0.0,54,0.00,,SKC,0.00,WeatherDisplay:10.37,2013-03-22 13:09:00,
2013-03-22 09:14:00,34.9,19.0,29.00,South,180,0.0,0.0,52,0.00,,SKC,0.00,WeatherDisplay:10.37,2013-03-22 13:14:00,
2013-03-22 09:19:00,35.8,17.5,29.00,SE,135,0.0,0.0,47,0.00,,SKC,0.00,WeatherDisplay:10.37,2013-03-22 13:19:00,
2013-03-22 09:24:00,37.6,20.1,29.00,SW,225,0.0,0.0,49,0.00,,SKC,0.00,WeatherDisplay:10.37,2013-03-22 13:24:00,
2013-03-22 09:29:00,39.4,19.8,28.99,WNW,292,0.0,0.0,45,0.00,,SKC,0.00,WeatherDisplay:10.37,2013-03-22 13:29:00,
2013-03-22 09:34:00,38.8,18.8,29.00,SSE,158,0.0,0.0,44,0.00,,SKC,0.00,WeatherDisplay:10.37,2013-03-22 13:34:00,
2013-03-22 09:36:00,75.2,67.5,30.09,North,0,0.0,0.7,77,0.00,,,0.00,Cumulus v1.9.3,2013-03-22 13:36:00,
2013-03-22 09:39:00,39.0,18.9,28.99,North,0,0.0,0.0,44,0.00,,SKC,0.00,WeatherDisplay:10.37,2013-03-22 13:39:00,
2013-03-22 09:44:00,39.6,18.3,28.99,SW,225,0.0,0.0,42,0.00,,SKC,0.00,WeatherDisplay:10.37,2013-03-22 13:44:00,
2013-03-22 09:49:00,38.1,15.9,28.99,SE,135,0.0,0.0,40,0.00,,SKC,0.00,WeatherDisplay:10.37,2013-03-22 13:49:00,
2013-03-22 09:54:00,38.8,18.8,28.99,South,180,0.0,0.0,44,0.00,,SKC,0.00,WeatherDisplay:10.37,2013-03-22 13:54:00,
2013-03-22 09:59:00,40.3,18.4,28.98,SW,225,0.0,0.0,41,0.00,,SKC,0.00,WeatherDisplay:10.37,2013-03-22 13:59:00,
2013-03-22 10:04:00,41.0,17.3,28.98,East,90,0.0,0.0,38,0.00,,SKC,0.00,WeatherDisplay:10.37,2013-03-22 14:04:00,
2013-03-22 10:06:00,73.0,66.9,30.07,North,0,0.0,0.0,81,0.01,,,0.01,Cumulus v1.9.3,2013-03-22 14:06:00,
2013-03-22 10:09:00,42.8,17.7,28.98,South,180,0.0,0.0,36,0.00,,SKC,0.00,WeatherDisplay:10.37,2013-03-22 14:09:00,
2013-03-22 10:14:00,41.7,13.3,28.98,SE,135,0.0,0.0,31,0.00,,SKC,0.00,WeatherDisplay:10.37,2013-03-22 14:14:00,
2013-03-22 10:19:00,40.8,13.9,28.98,NW,315,0.0,0.0,33,0.00,,SKC,0.00,WeatherDisplay:10.37,2013-03-22 14:19:00,
2013-03-22 10:24:00,42.6,14.8,28.98,South,180,0.0,0.0,32,0.00,,SKC,0.00,WeatherDisplay:10.37,2013-03-22 14:24:00,
2013-03-22 10:29:00,43.3,14.7,28.98,South,180,0.0,0.0,31,0.00,,SKC,0.00,WeatherDisplay:10.37,2013-03-22 14:29:00,
2013-03-22 10:34:00,43.5,13.3,28.98,West,270,0.0,0.0,29,0.00,,SKC,0.00,WeatherDisplay:10.37,2013-03-22 14:34:00,
2013-03-22 10:36:00,72.1,66.7,30.06,North,0,0.0,0.7,83,0.01,,,0.01,Cumulus v1.9.3,2013-03-22 14:36:00,
2013-03-22 10:39:00,43.5,12.5,28.98,West,270,0.0,0.0,28,0.00,,SKC,0.00,WeatherDisplay:10.37,2013-03-22 14:39:00,
2013-03-22 10:44:00,44.8,14.4,28.97,NW,315,0.0,0.0,29,0.00,,SKC,0.00,WeatherDisplay:10.37,2013-03-22 14:44:00,
2013-03-22 10:49:00,44.8,11.9,28.97,NE,45,0.0,0.0,26,0.00,,SKC,0.00,WeatherDisplay:10.37,2013-03-22 14:49:00,
2013-03-22 10:54:00,44.1,11.3,28.98,North,0,0.0,0.0,26,0.00,,SKC,0.00,WeatherDisplay:10.37,2013-03-22 14:54:00,
2013-03-22 10:59:00,42.4,9.9,28.97,South,180,0.0,0.0,26,0.00,,SKC,0.00,WeatherDisplay:10.37,2013-03-22 14:59:00,
2013-03-22 11:04:00,43.0,12.0,28.97,ENE,68,0.0,0.0,28,0.00,,SKC,0.00,WeatherDisplay:10.37,2013-03-22 15:04:00,
2013-03-22 11:06:00,72.0,66.5,30.06,North,0,0.0,0.0,83,0.00,,,0.01,Cumulus v1.9.3,2013-03-22 15:06:00,
2013-03-22 11:09:00,43.2,12.2,28.97,SW,225,0.0,0.0,28,0.00,,SKC,0.00,WeatherDisplay:10.37,2013-03-22 15:09:00,
2013-03-22 11:14:00,42.8,11.9,28.97,North,0,0.0,0.0,28,0.00,,SKC,0.00,WeatherDisplay:10.37,2013-03-22 15:14:00,
2013-03-22 11:19:00,42.3,11.4,28.97,NE,45,0.0,0.0,28,0.00,,SKC,0.00,WeatherDisplay:10.37,2013-03-22 15:19:00,
2013-03-22 11:24:00,42.1,12.1,28.96,SE,135,0.0,0.0,29,0.00,,SKC,0.00,WeatherDisplay:10.37,2013-03-22 15:24:00,
2013-03-22 11:29:00,43.5,12.5,28.96,North,0,0.0,0.0,28,0.00,,SKC,0.00,WeatherDisplay:10.37,2013-03-22 15:29:00,
2013-03-22 11:34:00,44.8,11.9,28.96,SW,225,0.0,0.0,26,0.00,,SKC,0.00,WeatherDisplay:10.37,2013-03-22 15:34:00,
2013-03-22 11:36:00,71.8,66.3,30.07,North,0,0.0,0.7,83,0.00,,,0.01,Cumulus v1.9.3,2013-03-22 15:36:00,
2013-03-22 11:39:00,44.8,10.1,28.96,South,180,0.0,0.0,24,0.00,,SKC,0.00,WeatherDisplay:10.37,2013-03-22 15:39:00,
2013-03-22 11:44:00,44.1,10.4,28.96,West,270,0.0,0.0,25,0.00,,SKC,0.00,WeatherDisplay:10.37,2013-03-22 15:44:00,
2013-03-22 11:49:00,43.2,9.7,28.96,NW,315,0.0,0.0,25,0.00,,SKC,0.00,WeatherDisplay:10.37,2013-03-22 15:49:00,
2013-03-22 11:54:00,42.8,11.9,28.96,SE,135,0.0,0.0,28,0.00,,SKC,0.00,WeatherDisplay:10.37,2013-03-22 15:54:00,
2013-03-22 11:59:00,42.6,11.7,28.95,NW,315,0.0,0.0,28,0.00,,SKC,0.00,WeatherDisplay:10.37,2013-03-22 15:59:00,
2013-03-22 12:04:00,42.3,11.4,28.95,South,180,0.0,0.0,28,0.00,,SKC,0.00,WeatherDisplay:10.37,2013-03-22 16:04:00,
2013-03-22 12:06:00,70.9,66.1,30.08,North,0,0.0,0.7,85,0.00,,,0.01,Cumulus v1.9.3,2013-03-22 16:06:00,
2013-03-22 12:09:00,43.2,12.2,28.94,South,180,0.0,0.0,28,0.00,,SKC,0.00,WeatherDisplay:10.37,2013-03-22 16:09:00,
2013-03-22 12:14:00,43.9,12.8,28.95,North,0,0.0,0.0,28,0.00,,SKC,0.00,WeatherDisplay:10.37,2013-03-22 16:14:00,
2013-03-22 12:19:00,43.5,12.5,28.94,South,180,0.0,0.0,28,0.00,,SKC,0.00,WeatherDisplay:10.37,2013-03-22 16:19:00,
2013-03-22 12:24:00,44.4,11.6,28.94,South,180,0.0,0.0,26,0.00,,SKC,0.00,WeatherDisplay:10.37,2013-03-22 16:24:00,
2013-03-22 12:29:00,46.6,15.2,28.94,South,180,0.0,0.0,28,0.00,,SKC,0.00,WeatherDisplay:10.37,2013-03-22 16:29:00,
2013-03-22 12:34:00,48.4,15.9,28.93,SW,225,0.0,0.0,27,0.00,,SKC,0.00,WeatherDisplay:10.37,2013-03-22 16:34:00,
2013-03-22 12:36:00,70.5,66.1,30.10,North,0,0.0,0.7,86,0.00,,,0.01,Cumulus v1.9.3,2013-03-22 16:36:00,
2013-03-22 12:39:00,48.9,15.5,28.93,NW,315,0.0,0.0,26,0.00,,SKC,0.00,WeatherDisplay:10.37,2013-03-22 16:39:00,
2013-03-22 12:44:00,49.3,14.9,28.92,NW,315,0.0,0.0,25,0.00,,SKC,0.00,WeatherDisplay:10.37,2013-03-22 16:44:00,
2013-03-22 12:49:00,49.3,14.9,28.92,SW,225,0.0,0.0,25,0.00,,SKC,0.00,WeatherDisplay:10.37,2013-03-22 16:49:00,
2013-03-22 12:54:00,48.9,14.6,28.92,West,270,0.0,0.0,25,0.00,,SKC,0.00,WeatherDisplay:10.37,2013-03-22 16:54:00,
2013-03-22 12:59:00,48.7,14.4,28.92,West,270,0.0,0.0,25,0.00,,SKC,0.00,WeatherDisplay:10.37,2013-03-22 16:59:00,
2013-03-22 13:05:00,48.7,14.4,28.92,West,270,0.0,0.0,25,0.00,,SKC,0.00,WeatherDisplay:10.37,2013-03-22 17:05:00,
2013-03-22 13:06:00,70.2,66.1,30.09,North,0,0.0,0.7,87,0.00,,,0.01,Cumulus v1.9.3,2013-03-22 17:06:00,
2013-03-22 13:10:00,51.6,13.9,28.92,NW,315,0.0,0.0,22,0.00,,SKC,0.00,WeatherDisplay:10.37,2013-03-22 17:10:00,
2013-03-22 13:15:00,51.6,13.9,28.92,South,180,0.0,0.0,22,0.00,,SKC,0.00,WeatherDisplay:10.37,2013-03-22 17:15:00,
2013-03-22 13:20:00,50.7,14.2,28.91,South,180,0.0,0.0,23,0.00,,SKC,0.00,WeatherDisplay:10.37,2013-03-22 17:20:00,
2013-03-22 13:25:00,50.7,14.2,28.91,South,180,0.0,0.0,23,0.00,,SKC,0.00,WeatherDisplay:10.37,2013-03-22 17:25:00,
2013-03-22 13:30:00,51.4,13.8,28.90,South,180,0.0,0.0,22,0.00,,SKC,0.00,WeatherDisplay:10.37,2013-03-22 17:30:00,
2013-03-22 13:35:00,51.4,13.8,28.90,South,180,0.0,0.0,22,0.00,,SKC,0.00,WeatherDisplay:10.37,2013-03-22 17:35:00,
2013-03-22 13:36:00,69.8,65.8,30.10,North,0,0.0,0.7,87,0.00,,,0.01,Cumulus v1.9.3,2013-03-22 17:36:00,
2013-03-22 13:40:00,51.4,13.8,28.90,North,8,0.0,0.0,22,0.00,,SKC,0.00,WeatherDisplay:10.37,2013-03-22 17:40:00,
2013-03-22 13:45:00,51.4,13.8,28.90,North,0,0.0,0.0,22,0.00,,SKC,0.00,WeatherDisplay:10.37,2013-03-22 17:45:00,
2013-03-22 13:50:00,51.4,13.8,28.89,North,0,0.0,0.0,22,0.00,,SKC,0.00,WeatherDisplay:10.37,2013-03-22 17:50:00,
2013-03-22 13:55:00,51.4,13.8,28.89,North,0,0.0,0.0,22,0.00,,SKC,0.00,WeatherDisplay:10.37,2013-03-22 17:55:00,
2013-03-22 14:00:00,51.4,13.8,28.89,North,0,0.0,0.0,22,0.00,,SKC,0.00,WeatherDisplay:10.37,2013-03-22 18:00:00,
2013-03-22 14:05:00,52.2,14.4,28.88,SE,135,0.0,0.0,22,0.00,,SKC,0.00,WeatherDisplay:10.37,2013-03-22 18:05:00,
2013-03-22 14:06:00,69.3,65.9,30.10,North,0,0.0,0.7,89,0.00,,,0.01,Cumulus v1.9.3,2013-03-22 18:06:00,
2013-03-22 14:10:00,52.7,14.9,28.88,SW,225,0.0,0.0,22,0.00,,SKC,0.00,WeatherDisplay:10.37,2013-03-22 18:10:00,
2013-03-22 14:15:00,52.7,14.9,28.88,SW,225,0.0,0.0,22,0.00,,SKC,0.00,WeatherDisplay:10.37,2013-03-22 18:15:00,
2013-03-22 14:20:00,52.7,14.9,28.87,North,10,0.0,0.0,22,0.00,,SKC,0.00,WeatherDisplay:10.37,2013-03-22 18:20:00,
2013-03-22 14:25:00,52.7,14.9,28.87,North,0,0.0,0.0,22,0.00,,SKC,0.00,WeatherDisplay:10.37,2013-03-22 18:25:00,
2013-03-22 14:30:00,55.4,18.2,28.87,North,0,0.0,0.0,23,0.00,,SKC,0.00,WeatherDisplay:10.37,2013-03-22 18:30:00,
2013-03-22 14:35:00,56.3,18.9,28.86,SW,225,0.0,0.0,23,0.00,,SKC,0.00,WeatherDisplay:10.37,2013-03-22 18:35:00,
2013-03-22 14:36:00,69.1,65.7,30.10,North,0,0.0,0.7,89,0.00,,,0.01,Cumulus v1.9.3,2013-03-22 18:36:00,
2013-03-22 14:40:00,56.5,19.1,28.86,South,180,0.0,0.0,23,0.00,,SKC,0.00,WeatherDisplay:10.37,2013-03-22 18:40:00,
2013-03-22 14:45:00,56.5,19.1,28.86,South,180,0.0,0.0,23,0.00,,SKC,0.00,WeatherDisplay:10.37,2013-03-22 18:45:00,
2013-03-22 14:50:00,56.5,19.1,28.86,North,0,0.0,0.0,23,0.00,,SKC,0.00,WeatherDisplay:10.37,2013-03-22 18:50:00,
2013-03-22 14:55:00,56.5,19.1,28.85,North,0,0.0,0.0,23,0.00,,SKC,0.00,WeatherDisplay:10.37,2013-03-22 18:55:00,
2013-03-22 15:00:00,57.6,18.9,28.85,SW,225,0.0,0.0,22,0.00,,SKC,0.00,WeatherDisplay:10.37,2013-03-22 19:00:00,
2013-03-22 15:05:00,56.3,18.9,28.85,SW,225,0.0,0.0,23,0.00,,SKC,0.00,WeatherDisplay:10.37,2013-03-22 19:05:00,
2013-03-22 15:06:00,67.5,66.0,30.10,North,0,0.0,0.7,95,0.06,,,0.07,Cumulus v1.9.3,2013-03-22 19:06:00,
2013-03-22 15:10:00,54.7,15.5,28.85,SE,135,0.0,0.0,21,0.00,,SKC,0.00,WeatherDisplay:10.37,2013-03-22 19:10:00,
2013-03-22 15:15:00,53.8,14.7,28.85,South,180,0.0,0.0,21,0.00,,SKC,0.00,WeatherDisplay:10.37,2013-03-22 19:15:00,
2013-03-22 15:20:00,53.8,14.7,28.84,SW,225,0.0,0.0,21,0.00,,SKC,0.00,WeatherDisplay:10.37,2013-03-22 19:20:00,
2013-03-22 15:25:00,53.8,14.7,28.84,SW,225,0.0,0.0,21,0.00,,SKC,0.00,WeatherDisplay:10.37,2013-03-22 19:25:00,
2013-03-22 15:30:00,55.0,17.9,28.84,NW,315,0.0,0.0,23,0.00,,SKC,0.00,WeatherDisplay:10.37,2013-03-22 19:30:00,
2013-03-22 15:35:00,55.0,17.9,28.84,NW,315,0.0,0.0,23,0.00,,SKC,0.00,WeatherDisplay:10.37,2013-03-22 19:35:00,
2013-03-22 15:36:00,66.6,65.7,30.11,North,0,0.0,0.0,97,0.13,,,0.14,Cumulus v1.9.3,2013-03-22 19:36:00,
2013-03-22 15:40:00,55.0,17.9,28.84,NNE,14,0.0,0.0,23,0.00,,SKC,0.00,WeatherDisplay:10.37,2013-03-22 19:40:00,
2013-03-22 15:45:00,54.1,15.0,28.83,NW,315,0.0,0.0,21,0.00,,SKC,0.00,WeatherDisplay:10.37,2013-03-22 19:45:00,
2013-03-22 15:50:00,54.5,15.3,28.83,NE,45,0.0,0.0,21,0.00,,SKC,0.00,WeatherDisplay:10.37,2013-03-22 19:50:00,
2013-03-22 15:55:00,54.5,15.3,28.83,NE,45,0.0,0.0,21,0.00,,SKC,0.00,WeatherDisplay:10.37,2013-03-22 19:55:00,
2013-03-22 16:00:00,55.1,18.9,28.83,ENE,71,0.0,0.0,24,0.00,,SKC,0.00,WeatherDisplay:10.37,2013-03-22 20:00:00,
2013-03-22 16:05:00,55.2,19.0,28.83,North,0,0.0,0.0,24,0.00,,SKC,0.00,WeatherDisplay:10.37,2013-03-22 20:05:00,
2013-03-22 16:06:00,66.2,65.9,30.10,North,0,0.0,0.0,99,0.11,,,0.18,Cumulus v1.9.3,2013-03-22 20:06:00,
2013-03-22 16:10:00,54.7,15.5,28.83,NW,315,0.0,0.0,21,0.00,,SKC,0.00,WeatherDisplay:10.37,2013-03-22 20:10:00,
2013-03-22 16:15:00,54.1,15.0,28.83,NE,45,0.0,0.0,21,0.00,,SKC,0.00,WeatherDisplay:10.37,2013-03-22 20:15:00,
2013-03-22 16:20:00,53.8,14.7,28.83,NW,315,0.0,0.0,21,0.00,,SKC,0.00,WeatherDisplay:10.37,2013-03-22 20:20:00,
2013-03-22 16:25:00,53.1,14.1,28.83,SE,135,0.0,0.0,21,0.00,,SKC,0.00,WeatherDisplay:10.37,2013-03-22 20:25:00,
2013-03-22 16:30:00,52.7,14.9,28.83,South,180,0.0,0.0,22,0.00,,SKC,0.00,WeatherDisplay:10.37,2013-03-22 20:30:00,
2013-03-22 16:35:00,52.7,14.9,28.82,SW,225,0.0,0.0,22,0.00,,SKC,0.00,WeatherDisplay:10.37,2013-03-22 20:35:00,
2013-03-22 16:36:00,65.8,65.6,30.08,South,181,0.7,2.2,99,0.22,,,0.37,Cumulus v1.9.3,2013-03-22 20:36:00,
2013-03-22 16:40:00,53.2,14.2,28.83,SW,225,0.0,0.0,21,0.00,,SKC,0.00,WeatherDisplay:10.37,2013-03-22 20:40:00,
2013-03-22 16:45:00,53.6,14.5,28.83,SW,225,0.0,0.0,21,0.00,,SKC,0.00,WeatherDisplay:10.37,2013-03-22 20:45:00,
2013-03-22 16:50:00,53.2,14.2,28.83,SW,225,0.0,0.0,21,0.00,,SKC,0.00,WeatherDisplay:10.37,2013-03-22 20:50:00,
2013-03-22 16:55:00,52.7,14.9,28.83,SW,225,0.0,0.0,22,0.00,,SKC,0.00,WeatherDisplay:10.37,2013-03-22 20:55:00,
2013-03-22 17:00:00,52.7,14.9,28.83,South,180,0.0,0.0,22,0.00,,SKC,0.00,WeatherDisplay:10.37,2013-03-22 21:00:00,
2013-03-22 17:05:00,52.9,16.0,28.83,North,0,0.0,0.0,23,0.00,,SKC,0.00,WeatherDisplay:10.37,2013-03-22 21:05:00,
2013-03-22 17:06:00,65.5,65.2,30.08,North,0,0.0,0.7,99,0.48,,,0.66,Cumulus v1.9.3,2013-03-22 21:06:00,
2013-03-22 17:10:00,52.5,14.7,28.83,SE,135,0.0,0.0,22,0.00,,SKC,0.00,WeatherDisplay:10.37,2013-03-22 21:10:00,
2013-03-22 17:15:00,52.3,14.6,28.83,South,180,0.0,0.0,22,0.00,,SKC,0.00,WeatherDisplay:10.37,2013-03-22 21:15:00,
2013-03-22 17:20:00,52.2,15.4,28.83,South,180,0.0,0.0,23,0.00,,SKC,0.00,WeatherDisplay:10.37,2013-03-22 21:20:00,
2013-03-22 17:25:00,52.0,15.3,28.83,NE,45,0.0,0.0,23,0.00,,SKC,0.00,WeatherDisplay:10.37,2013-03-22 21:25:00,
2013-03-22 17:30:00,51.6,15.0,28.84,South,180,0.0,0.0,23,0.00,,SKC,0.00,WeatherDisplay:10.37,2013-03-22 21:30:00,
2013-03-22 17:35:00,51.3,14.7,28.84,South,180,0.0,0.0,23,0.00,,SKC,0.00,WeatherDisplay:10.37,2013-03-22 21:35:00,
2013-03-22 17:36:00,65.5,65.2,30.07,North,0,0.0,0.0,99,0.41,,,0.78,Cumulus v1.9.3,2013-03-22 21:36:00,
2013-03-22 17:40:00,51.1,15.5,28.84,South,180,0.0,0.0,24,0.00,,SKC,0.00,WeatherDisplay:10.37,2013-03-22 21:40:00,
2013-03-22 17:45:00,50.7,15.2,28.84,South,180,0.0,0.0,24,0.00,,SKC,0.00,WeatherDisplay:10.37,2013-03-22 21:45:00,
2013-03-22 17:50:00,50.5,15.0,28.83,South,180,0.0,0.0,24,0.00,,SKC,0.00,WeatherDisplay:10.37,2013-03-22 21:50:00,
2013-03-22 17:55:00,50.5,15.0,28.83,East,90,0.0,0.0,24,0.00,,SKC,0.00,WeatherDisplay:10.37,2013-03-22 21:55:00,
2013-03-22 18:00:00,50.7,15.2,28.84,SE,135,0.0,0.0,24,0.00,,SKC,0.00,WeatherDisplay:10.37,2013-03-22 22:00:00,
2013-03-22 18:05:00,50.7,15.2,28.84,NE,45,0.0,0.0,24,0.00,,SKC,0.00,WeatherDisplay:10.37,2013-03-22 22:05:00,
2013-03-22 18:06:00,65.3,65.0,30.06,North,0,0.0,0.7,99,0.19,,,0.85,Cumulus v1.9.3,2013-03-22 22:06:00,
2013-03-22 18:10:00,50.7,15.2,28.84,SW,225,0.0,0.0,24,0.00,,SKC,0.00,WeatherDisplay:10.37,2013-03-22 22:10:00,
2013-03-22 18:15:00,50.5,15.0,28.84,North,0,0.0,0.0,24,0.00,,SKC,0.00,WeatherDisplay:10.37,2013-03-22 22:15:00,
2013-03-22 18:20:00,50.4,15.8,28.84,SW,225,0.0,0.0,25,0.00,,SKC,0.00,WeatherDisplay:10.37,2013-03-22 22:20:00,
2013-03-22 18:25:00,50.4,15.8,28.84,SW,225,0.0,0.0,25,0.00,,SKC,0.00,WeatherDisplay:10.37,2013-03-22 22:25:00,
2013-03-22 18:30:00,50.4,15.8,28.84,NW,315,0.0,0.0,25,0.00,,SKC,0.00,WeatherDisplay:10.37,2013-03-22 22:30:00,
2013-03-22 18:35:00,50.2,15.7,28.84,West,270,0.0,0.0,25,0.00,,SKC,0.00,WeatherDisplay:10.37,2013-03-22 22:35:00,
2013-03-22 18:36:00,65.3,65.0,30.04,North,0,0.0,0.0,99,0.12,,,0.90,Cumulus v1.9.3,2013-03-22 22:36:00,
2013-03-22 18:40:00,50.0,16.4,28.84,South,180,0.0,0.0,26,0.00,,SKC,0.00,WeatherDisplay:10.37,2013-03-22 22:40:00,
2013-03-22 18:45:00,50.0,16.4,28.84,South,180,0.0,0.0,26,0.00,,SKC,0.00,WeatherDisplay:10.37,2013-03-22 22:45:00,
2013-03-22 18:51:00,50.0,16.4,28.84,West,270,0.0,0.0,26,0.00,,SKC,0.00,WeatherDisplay:10.37,2013-03-22 22:51:00,
2013-03-22 18:56:00,50.0,16.4,28.84,SSE,158,0.0,0.0,26,0.00,,SKC,0.00,WeatherDisplay:10.37,2013-03-22 22:56:00,
2013-03-22 19:01:00,49.8,16.3,28.84,West,270,0.0,0.0,26,0.00,,SKC,0.00,WeatherDisplay:10.37,2013-03-22 23:01:00,
2013-03-22 19:06:00,49.6,16.1,28.85,NE,45,0.0,0.0,26,0.00,,SKC,0.00,WeatherDisplay:10.37,2013-03-22 23:06:00,
2013-03-22 19:11:00,49.6,16.1,28.85,West,270,0.0,0.0,26,0.00,,SKC,0.00,WeatherDisplay:10.37,2013-03-22 23:11:00,
2013-03-22 19:16:00,49.5,15.9,28.85,North,0,0.0,0.0,26,0.00,,SKC,0.00,WeatherDisplay:10.37,2013-03-22 23:16:00,
2013-03-22 19:21:00,49.3,16.7,28.85,SW,225,0.0,0.0,27,0.00,,SKC,0.00,WeatherDisplay:10.37,2013-03-22 23:21:00,
2013-03-22 19:26:00,49.1,18.2,28.85,SE,135,0.0,0.0,29,0.00,,SKC,0.00,WeatherDisplay:10.37,2013-03-22 23:26:00,
2013-03-22 19:31:00,49.1,18.2,28.85,West,270,0.0,0.0,29,0.00,,SKC,0.00,WeatherDisplay:10.37,2013-03-22 23:31:00,
2013-03-22 19:36:00,48.9,18.0,28.85,SE,135,0.0,0.0,29,0.00,,SKC,0.00,WeatherDisplay:10.37,2013-03-22 23:36:00,
2013-03-22 19:41:00,48.6,17.7,28.85,West,270,0.0,0.0,29,0.00,,SKC,0.00,WeatherDisplay:10.37,2013-03-22 23:41:00,
2013-03-22 19:46:00,48.6,18.5,28.86,East,90,0.0,0.0,30,0.00,,SKC,0.00,WeatherDisplay:10.37,2013-03-22 23:46:00,
2013-03-22 19:51:00,48.4,18.3,28.86,SE,135,0.0,0.0,30,0.00,,SKC,0.00,WeatherDisplay:10.37,2013-03-22 23:51:00,
2013-03-22 19:56:00,48.2,18.9,28.87,SE,135,0.0,0.0,31,0.00,,SKC,0.00,WeatherDisplay:10.37,2013-03-22 23:56:00,
2013-03-22 20:01:00,48.0,19.5,28.87,North,0,0.0,0.0,32,0.00,,SKC,0.00,WeatherDisplay:10.37,2013-03-23 00:01:00,
2013-03-22 20:06:00,47.8,19.4,28.87,SW,225,0.0,0.0,32,0.00,,SKC,0.00,WeatherDisplay:10.37,2013-03-23 00:06:00,
2013-03-22 20:11:00,47.8,20.1,28.87,SW,225,0.0,0.0,33,0.00,,SKC,0.00,WeatherDisplay:10.37,2013-03-23 00:11:00,
2013-03-22 20:16:00,47.8,19.4,28.87,NW,315,0.0,0.0,32,0.00,,SKC,0.00,WeatherDisplay:10.37,2013-03-23 00:16:00,
2013-03-22 20:22:00,47.8,19.4,28.87,NW,315,0.0,0.0,32,0.00,,SKC,0.00,WeatherDisplay:10.37,2013-03-23 00:22:00,
2013-03-22 20:27:00,47.3,21.0,28.87,West,270,0.0,0.0,35,0.00,,SKC,0.00,WeatherDisplay:10.37,2013-03-23 00:27:00,
2013-03-22 20:32:00,46.9,20.0,28.87,NW,315,0.0,0.0,34,0.00,,SKC,0.00,WeatherDisplay:10.37,2013-03-23 00:32:00,
2013-03-22 20:36:00,64.6,64.3,30.01,North,0,0.0,0.0,99,0.09,,,1.12,Cumulus v1.9.3,2013-03-23 00:36:00,
2013-03-22 20:37:00,46.6,19.7,28.87,NW,315,0.0,0.0,34,0.00,,SKC,0.00,WeatherDisplay:10.37,2013-03-23 00:37:00,
2013-03-22 20:42:00,46.2,20.0,28.87,NW,315,0.0,0.0,35,0.00,,SKC,0.00,WeatherDisplay:10.37,2013-03-23 00:42:00,
2013-03-22 20:47:00,45.9,19.7,28.88,North,0,0.0,0.0,35,0.00,,SKC,0.00,WeatherDisplay:10.37,2013-03-23 00:47:00,
2013-03-22 20:52:00,45.7,18.9,28.88,North,0,0.0,0.0,34,0.00,,SKC,0.00,WeatherDisplay:10.37,2013-03-23 00:52:00,
2013-03-22 20:57:00,45.7,19.6,28.88,West,270,0.0,0.0,35,0.00,,SKC,0.00,WeatherDisplay:10.37,2013-03-23 00:57:00,
2013-03-22 21:02:00,45.1,19.7,28.89,NW,315,0.0,0.0,36,0.00,,SKC,0.00,WeatherDisplay:10.37,2013-03-23 01:02:00,
2013-03-22 21:06:00,64.6,64.3,30.00,North,0,0.0,0.0,99,0.02,,,1.12,Cumulus v1.9.3,2013-03-23 01:06:00,
2013-03-22 21:07:00,44.8,22.5,28.89,South,180,0.0,0.0,41,0.00,,SKC,0.00,WeatherDisplay:10.37,2013-03-23 01:07:00,
2013-03-22 21:12:00,44.6,22.9,28.89,SE,135,0.0,0.0,42,0.00,,SKC,0.00,WeatherDisplay:10.37,2013-03-23 01:12:00,
2013-03-22 21:17:00,44.4,22.7,28.89,NW,315,0.0,0.0,42,0.00,,SKC,0.00,WeatherDisplay:10.37,2013-03-23 01:17:00,
2013-03-22 21:22:00,43.9,23.4,28.89,NW,315,0.0,0.0,44,0.00,,SKC,0.00,WeatherDisplay:10.37,2013-03-23 01:22:00,
2013-03-22 21:27:00,43.7,23.2,28.89,NW,315,0.0,0.0,44,0.00,,SKC,0.00,WeatherDisplay:10.37,2013-03-23 01:27:00,
2013-03-22 21:32:00,43.7,22.1,28.90,NW,315,0.0,0.0,42,0.00,,SKC,0.00,WeatherDisplay:10.37,2013-03-23 01:32:00,
2013-03-22 21:36:00,64.6,64.3,29.99,North,0,0.0,0.7,99,0.01,,,1.13,Cumulus v1.9.3,2013-03-23 01:36:00,
2013-03-22 21:38:00,43.5,22.5,28.90,NW,315,0.0,0.0,43,0.00,,SKC,0.00,WeatherDisplay:10.37,2013-03-23 01:38:00,
2013-03-22 21:43:00,43.5,22.5,28.90,NW,315,0.0,0.0,43,0.00,,SKC,0.00,WeatherDisplay:10.37,2013-03-23 01:43:00,
2013-03-22 21:48:00,43.5,22.5,28.90,NW,315,0.0,0.0,43,0.00,,SKC,0.00,WeatherDisplay:10.37,2013-03-23 01:48:00,
2013-03-22 21:53:00,43.3,22.3,28.91,South,180,0.0,0.0,43,0.00,,SKC,0.00,WeatherDisplay:10.37,2013-03-23 01:53:00,
2013-03-22 21:58:00,43.5,22.5,28.91,NW,315,0.0,0.0,43,0.00,,SKC,0.00,WeatherDisplay:10.37,2013-03-23 01:58:00,
2013-03-22 22:03:00,43.3,22.9,28.91,North,0,0.0,0.0,44,0.00,,SKC,0.00,WeatherDisplay:10.37,2013-03-23 02:03:00,
2013-03-22 22:06:00,64.4,64.1,29.99,North,0,0.0,0.7,99,0.01,,,1.13,Cumulus v1.9.3,2013-03-23 02:06:00,
2013-03-22 22:08:00,43.2,23.8,28.91,West,270,0.0,0.0,46,0.00,,SKC,0.00,WeatherDisplay:10.37,2013-03-23 02:08:00,
2013-03-22 22:13:00,43.0,24.1,28.91,NW,315,0.0,0.0,47,0.00,,SKC,0.00,WeatherDisplay:10.37,2013-03-23 02:13:00,
2013-03-22 22:18:00,42.8,23.9,28.91,SW,225,0.0,0.0,47,0.00,,SKC,0.00,WeatherDisplay:10.37,2013-03-23 02:18:00,
2013-03-22 22:23:00,42.6,23.3,28.92,NW,315,0.0,0.0,46,0.00,,SKC,0.00,WeatherDisplay:10.37,2013-03-23 02:23:00,
2013-03-22 22:28:00,42.6,23.3,28.91,NW,315,0.0,0.0,46,0.00,,SKC,0.00,WeatherDisplay:10.37,2013-03-23 02:28:00,
2013-03-22 22:33:00,42.6,23.3,28.92,NW,315,0.0,0.0,46,0.00,,SKC,0.00,WeatherDisplay:10.37,2013-03-23 02:33:00,
2013-03-22 22:36:00,64.6,64.3,29.99,North,0,0.0,0.0,99,0.00,,,1.13,Cumulus v1.9.3,2013-03-23 02:36:00,
2013-03-22 22:38:00,42.6,23.3,28.92,North,1,0.0,0.0,46,0.00,,SKC,0.00,WeatherDisplay:10.37,2013-03-23 02:38:00,
2013-03-22 22:43:00,42.6,23.3,28.92,North,0,0.0,0.0,46,0.00,,SKC,0.00,WeatherDisplay:10.37,2013-03-23 02:43:00,
2013-03-22 22:48:00,42.6,23.3,28.92,North,0,0.0,0.0,46,0.00,,SKC,0.00,WeatherDisplay:10.37,2013-03-23 02:48:00,
2013-03-22 22:53:00,42.6,23.3,28.92,North,0,0.0,0.0,46,0.00,,SKC,0.00,WeatherDisplay:10.37,2013-03-23 02:53:00,
2013-03-22 22:58:00,42.6,23.3,28.92,North,0,0.0,0.0,46,0.00,,SKC,0.00,WeatherDisplay:10.37,2013-03-23 02:58:00,
2013-03-22 23:03:00,42.6,23.3,28.92,North,0,0.0,0.0,46,0.00,,SKC,0.00,WeatherDisplay:10.37,2013-03-23 03:03:00,
2013-03-22 23:06:00,64.6,64.3,29.98,North,0,0.0,0.0,99,0.25,,,1.38,Cumulus v1.9.3,2013-03-23 03:06:00,
2013-03-22 23:08:00,40.6,24.4,28.92,South,180,0.0,0.0,52,0.00,,SKC,0.00,WeatherDisplay:10.37,2013-03-23 03:08:00,
2013-03-22 23:13:00,40.5,24.7,28.93,SE,135,0.0,0.0,53,0.00,,SKC,0.00,WeatherDisplay:10.37,2013-03-23 03:13:00,
2013-03-22 23:18:00,40.3,25.4,28.93,NW,315,0.0,0.0,55,0.00,,SKC,0.00,WeatherDisplay:10.37,2013-03-23 03:18:00,
2013-03-22 23:23:00,40.1,25.2,28.93,North,0,0.0,0.0,55,0.00,,SKC,0.00,WeatherDisplay:10.37,2013-03-23 03:23:00,
2013-03-22 23:28:00,40.1,25.2,28.94,NE,45,0.0,0.0,55,0.00,,SKC,0.00,WeatherDisplay:10.37,2013-03-23 03:28:00,
2013-03-22 23:33:00,40.3,25.4,28.94,West,270,0.0,0.0,55,0.00,,SKC,0.00,WeatherDisplay:10.37,2013-03-23 03:33:00,
2013-03-22 23:36:00,64.2,63.4,29.98,North,0,0.0,0.0,97,0.39,,,1.52,Cumulus v1.9.3,2013-03-23 03:36:00,
2013-03-22 23:38:00,40.3,25.4,28.93,NW,315,0.0,0.0,55,0.00,,SKC,0.00,WeatherDisplay:10.37,2013-03-23 03:38:00,
2013-03-22 23:43:00,40.1,25.6,28.94,NW,315,0.0,0.0,56,0.00,,SKC,0.00,WeatherDisplay:10.37,2013-03-23 03:43:00,
2013-03-22 23:48:00,39.7,25.3,28.93,NW,315,1.1,0.0,56,0.00,,SKC,0.00,WeatherDisplay:10.37,2013-03-23 03:48:00,
2013-03-22 23:53:00,39.7,25.7,28.94,NW,315,1.1,0.0,57,0.00,,SKC,0.00,WeatherDisplay:10.37,2013-03-23 03:53:00,
2013-03-22 23:58:00,39.6,26.8,28.93,North,0,0.0,0.0,60,0.00,,SKC,0.00,WeatherDisplay:10.37,2013-03-23 03:58:00,